Time;durP1;ratioP1;P1;durP2;ratioP2;P2;SDS_P1;SDS_P2;PMS_P1;PMS_P2;Temp;Humidity;BMP_temperature;BMP_pressure;BME280_temperature;BME280_humidity;BME280_pressure;Samples;Min_cycle;Max_cycle;Signal;HPM_P1;HPM_P2
2023/09/27 00:00:29;;;;;;;14.63;7.77;;;25.70;64.00;;;;;;5053952;27;91916;-56
2023/09/27 00:02:57;;;;;;;11.07;6.63;;;25.70;64.10;;;;;;5057625;27;92964;-56
2023/09/27 00:05:26;;;;;;;13.37;7.83;;;25.70;64.20;;;;;;5056657;27;92048;-57
2023/09/27 00:07:54;;;;;;;9.30;6.00;;;25.70;64.10;;;;;;5056672;27;94034;-57
2023/09/27 00:10:27;;;;;;;10.10;6.90;;;25.70;64.10;;;;;;5056241;27;94816;-56
2023/09/27 00:12:55;;;;;;;9.77;6.17;;;25.70;64.20;;;;;;5056208;27;92074;-56
2023/09/27 00:15:23;;;;;;;8.93;6.10;;;25.70;64.10;;;;;;5057324;27;92001;-56
2023/09/27 00:17:51;;;;;;;10.97;7.17;;;25.70;64.20;;;;;;5057362;27;93175;-56
2023/09/27 00:20:20;;;;;;;9.73;5.37;;;25.70;64.20;;;;;;5056595;27;92841;-56
2023/09/27 00:22:48;;;;;;;9.50;5.57;;;25.70;64.20;;;;;;5057368;27;92035;-56
2023/09/27 00:25:16;;;;;;;10.00;5.80;;;25.70;64.20;;;;;;5056928;27;91299;-56
2023/09/27 00:27:45;;;;;;;6.97;5.67;;;25.70;64.20;;;;;;5056741;27;93263;-56
2023/09/27 00:30:15;;;;;;;10.10;5.97;;;25.60;64.10;;;;;;5054485;27;93029;-56
2023/09/27 00:32:44;;;;;;;9.30;5.40;;;25.70;64.20;;;;;;5055231;27;93161;-56
2023/09/27 00:35:18;;;;;;;10.13;6.20;;;25.70;64.20;;;;;;5053513;27;92119;-56
2023/09/27 00:37:47;;;;;;;9.83;6.53;;;25.70;64.20;;;;;;5056836;27;93123;-56
2023/09/27 00:40:18;;;;;;;9.07;5.47;;;25.70;64.20;;;;;;5056423;27;92613;-56
2023/09/27 00:42:48;;;;;;;9.10;5.53;;;25.60;64.20;;;;;;5057200;27;92060;-56
2023/09/27 00:45:17;;;;;;;8.80;4.90;;;25.60;64.00;;;;;;5056554;27;92231;-56
2023/09/27 00:47:46;;;;;;;12.40;4.90;;;25.60;64.10;;;;;;5056265;27;93304;-56
2023/09/27 00:50:14;;;;;;;7.67;5.20;;;25.60;64.90;;;;;;5056523;27;93003;-56
2023/09/27 00:52:43;;;;;;;8.60;4.57;;;25.60;64.00;;;;;;5056647;27;92007;-56
2023/09/27 00:55:12;;;;;;;7.77;4.80;;;25.60;64.00;;;;;;5053434;27;92105;-56
2023/09/27 00:57:40;;;;;;;7.00;5.00;;;25.60;64.10;;;;;;5055897;27;94026;-56
2023/09/27 01:00:11;;;;;;;7.83;5.13;;;25.70;64.20;;;;;;5052928;27;93841;-56
2023/09/27 01:02:39;;;;;;;9.47;4.60;;;25.60;64.20;;;;;;5056929;27;92315;-56
2023/09/27 01:05:09;;;;;;;5.93;4.50;;;25.70;64.20;;;;;;5055930;27;92205;-56
2023/09/27 01:07:38;;;;;;;6.13;4.43;;;25.60;64.10;;;;;;5057271;27;93130;-56
2023/09/27 01:10:08;;;;;;;7.63;5.00;;;25.60;64.00;;;;;;5059593;27;92576;-56
2023/09/27 01:12:36;;;;;;;4.73;4.10;;;25.60;64.10;;;;;;5060548;27;92054;-56
2023/09/27 01:15:06;;;;;;;6.03;4.63;;;25.60;64.10;;;;;;5059782;27;91858;-56
2023/09/27 01:17:36;;;;;;;5.87;3.97;;;25.60;64.00;;;;;;5059805;27;93266;-56
2023/09/27 01:20:11;;;;;;;5.20;3.87;;;25.60;64.20;;;;;;5059344;27;92081;-56
2023/09/27 01:22:39;;;;;;;6.83;4.67;;;25.60;64.00;;;;;;5059933;27;93073;-56
2023/09/27 01:25:10;;;;;;;8.07;4.30;;;25.60;64.00;;;;;;5059440;27;92166;-56
2023/09/27 01:27:38;;;;;;;5.43;3.60;;;25.60;64.10;;;;;;5058730;27;94217;-56
2023/09/27 01:30:09;;;;;;;4.63;3.97;;;25.60;64.00;;;;;;5058862;27;92769;-56
2023/09/27 01:32:37;;;;;;;6.40;4.10;;;25.60;64.00;;;;;;5058944;27;92143;-56
2023/09/27 01:35:07;;;;;;;10.90;4.30;;;25.60;64.00;;;;;;5057577;27;92237;-56
2023/09/27 01:37:35;;;;;;;6.77;3.30;;;25.60;64.00;;;;;;5058443;27;93150;-56
2023/09/27 01:40:09;;;;;;;3.93;3.43;;;25.60;64.90;;;;;;5059918;27;93824;-56
2023/09/27 01:42:43;;;;;;;4.63;3.70;;;25.60;64.80;;;;;;5059870;27;92053;-56
2023/09/27 01:45:12;;;;;;;5.53;4.17;;;25.50;64.00;;;;;;5056689;27;91931;-56
2023/09/27 01:47:40;;;;;;;4.93;3.20;;;25.50;64.00;;;;;;5058365;27;94160;-56
2023/09/27 01:50:09;;;;;;;6.23;3.60;;;25.50;64.00;;;;;;5059785;27;94767;-56
2023/09/27 01:52:37;;;;;;;5.50;3.93;;;25.50;64.00;;;;;;5058186;27;92179;-56
2023/09/27 01:55:06;;;;;;;4.33;2.83;;;25.50;64.00;;;;;;5059525;27;92156;-55
2023/09/27 01:57:34;;;;;;;3.00;2.70;;;25.50;64.10;;;;;;5059683;27;94030;-56
2023/09/27 02:00:05;;;;;;;4.90;3.13;;;25.50;64.00;;;;;;5058989;27;92708;-55
2023/09/27 02:02:33;;;;;;;6.50;3.83;;;25.50;64.00;;;;;;5057373;27;92100;-56
2023/09/27 02:05:02;;;;;;;5.33;3.17;;;25.50;64.10;;;;;;5057176;27;91335;-56
2023/09/27 02:07:30;;;;;;;5.00;3.53;;;25.50;64.30;;;;;;5056584;27;93079;-56
2023/09/27 02:09:58;;;;;;;4.33;2.57;;;25.50;64.00;;;;;;5058885;27;92746;-56
2023/09/27 02:12:26;;;;;;;4.30;2.87;;;25.50;64.10;;;;;;5059097;27;92977;-56
2023/09/27 02:14:54;;;;;;;3.37;2.73;;;25.50;64.00;;;;;;5059019;27;92101;-56
2023/09/27 02:17:23;;;;;;;5.00;2.40;;;25.40;64.30;;;;;;5058531;27;93098;-56
2023/09/27 02:19:51;;;;;;;4.10;2.50;;;25.40;64.20;;;;;;5055153;27;93083;-56
2023/09/27 02:22:19;;;;;;;5.87;2.73;;;25.50;64.30;;;;;;5058315;27;93728;-56
2023/09/27 02:24:48;;;;;;;4.53;2.97;;;25.40;64.20;;;;;;5058562;27;92237;-56
2023/09/27 02:27:16;;;;;;;4.10;2.87;;;25.40;64.50;;;;;;5058371;27;93087;-56
2023/09/27 02:29:45;;;;;;;3.60;1.97;;;25.50;64.20;;;;;;5058631;27;92740;-55
2023/09/27 02:32:13;;;;;;;2.60;2.17;;;25.50;64.20;;;;;;5056072;27;92577;-56
2023/09/27 02:34:43;;;;;;;2.83;2.00;;;25.40;64.10;;;;;;5058424;27;93242;-56
2023/09/27 02:37:11;;;;;;;2.47;2.03;;;25.40;64.10;;;;;;5055613;27;94054;-56
2023/09/27 02:39:39;;;;;;;4.67;2.77;;;25.40;64.10;;;;;;5057422;27;93730;-56
2023/09/27 02:42:07;;;;;;;3.80;2.97;;;25.40;64.20;;;;;;5057700;27;92065;-56
2023/09/27 02:44:35;;;;;;;2.93;2.20;;;25.40;64.10;;;;;;5052895;27;92979;-57
2023/09/27 02:47:04;;;;;;;3.97;2.80;;;25.50;64.20;;;;;;5053882;27;93049;-57
2023/09/27 02:49:34;;;;;;;2.87;2.10;;;25.40;64.10;;;;;;5053583;27;92823;-56
2023/09/27 02:52:06;;;;;;;5.97;2.27;;;25.40;65.00;;;;;;5055475;27;92687;-57
2023/09/27 02:54:34;;;;;;;3.10;2.40;;;25.50;64.20;;;;;;5054008;27;91474;-57
2023/09/27 02:57:03;;;;;;;3.37;2.30;;;25.50;64.30;;;;;;5055057;27;93117;-57
2023/09/27 02:59:32;;;;;;;4.43;2.60;;;25.50;64.30;;;;;;5052667;27;92934;-56
2023/09/27 03:02:01;;;;;;;3.50;2.40;;;25.40;64.10;;;;;;5054673;27;93655;-57
2023/09/27 03:04:29;;;;;;;2.47;2.20;;;25.40;64.20;;;;;;5054668;27;92246;-57
2023/09/27 03:06:59;;;;;;;2.70;2.10;;;25.40;64.00;;;;;;5054965;27;93938;-56
2023/09/27 03:09:29;;;;;;;3.20;2.07;;;25.40;64.10;;;;;;5054708;27;92696;-56
2023/09/27 03:11:57;;;;;;;2.77;1.77;;;25.40;64.30;;;;;;5055384;27;92675;-56
2023/09/27 03:14:25;;;;;;;2.47;2.00;;;25.40;64.20;;;;;;5054913;27;92172;-57
2023/09/27 03:16:54;;;;;;;3.27;1.70;;;25.40;64.20;;;;;;5055066;27;93262;-57
2023/09/27 03:19:22;;;;;;;2.20;1.70;;;25.40;64.20;;;;;;5054412;27;94008;-56
2023/09/27 03:21:51;;;;;;;3.23;2.03;;;25.40;64.30;;;;;;5053984;27;92066;-57
2023/09/27 03:24:19;;;;;;;3.23;2.30;;;25.40;64.20;;;;;;5054398;27;92260;-57
2023/09/27 03:26:49;;;;;;;3.23;2.07;;;25.40;64.20;;;;;;5053212;27;94045;-57
2023/09/27 03:29:17;;;;;;;2.40;1.80;;;25.30;64.20;;;;;;5053857;27;93630;-57
2023/09/27 03:31:45;;;;;;;2.90;2.13;;;25.30;64.20;;;;;;5054620;27;92675;-57
2023/09/27 03:34:13;;;;;;;3.40;2.20;;;25.30;64.20;;;;;;5052513;27;92028;-57
2023/09/27 03:36:43;;;;;;;2.33;2.13;;;25.30;64.20;;;;;;5054924;27;94093;-57
2023/09/27 03:39:12;;;;;;;2.13;1.47;;;25.30;64.20;;;;;;5051289;27;93847;-57
2023/09/27 03:41:40;;;;;;;3.63;2.13;;;25.30;64.30;;;;;;5055539;27;92166;-57
2023/09/27 03:44:09;;;;;;;4.83;2.30;;;25.30;64.20;;;;;;5054598;27;91332;-57
2023/09/27 03:46:37;;;;;;;2.57;2.03;;;25.30;64.30;;;;;;5054302;27;92760;-57
2023/09/27 03:49:06;;;;;;;4.53;2.03;;;25.30;65.10;;;;;;5054404;27;92814;-57
2023/09/27 03:51:34;;;;;;;8.57;2.20;;;25.30;64.30;;;;;;5053999;27;93084;-57
2023/09/27 03:54:02;;;;;;;3.17;1.97;;;25.30;64.20;;;;;;5054405;27;92424;-57
2023/09/27 03:56:30;;;;;;;3.17;1.93;;;25.40;64.50;;;;;;5053527;27;93717;-57
2023/09/27 03:58:58;;;;;;;1.90;1.60;;;25.30;64.20;;;;;;5052371;27;92456;-54
2023/09/27 04:01:27;;;;;;;5.43;1.87;;;25.30;64.40;;;;;;5053290;27;92077;-54
2023/09/27 04:03:56;;;;;;;6.50;1.90;;;25.30;64.40;;;;;;5051239;27;92130;-56
2023/09/27 04:06:25;;;;;;;2.30;1.67;;;25.30;64.40;;;;;;5053991;27;93064;-56
2023/09/27 04:08:53;;;;;;;3.27;2.07;;;25.30;64.40;;;;;;5053833;27;92628;-56
2023/09/27 04:11:22;;;;;;;2.70;1.73;;;25.30;64.40;;;;;;5053498;27;92469;-56
2023/09/27 04:13:50;;;;;;;2.77;1.93;;;25.30;64.60;;;;;;5050617;27;92282;-57
2023/09/27 04:16:18;;;;;;;3.40;2.23;;;25.40;64.60;;;;;;5056379;27;95042;-55
2023/09/27 04:18:47;;;;;;;4.93;2.50;;;25.30;64.70;;;;;;5054346;27;94859;-55
2023/09/27 04:21:15;;;;;;;5.10;2.53;;;25.40;65.00;;;;;;5054898;27;92024;-55
2023/09/27 04:23:43;;;;;;;4.50;2.60;;;25.40;65.10;;;;;;5056620;27;92087;-55
2023/09/27 04:26:11;;;;;;;3.23;2.70;;;25.50;65.30;;;;;;5056220;27;94105;-55
2023/09/27 04:28:39;;;;;;;3.57;2.63;;;25.60;65.60;;;;;;5054851;27;92933;-55
2023/09/27 04:31:08;;;;;;;4.20;2.80;;;25.60;65.90;;;;;;5056357;27;92074;-55
2023/09/27 04:33:36;;;;;;;4.43;2.40;;;25.70;66.20;;;;;;5057151;27;91234;-55
2023/09/27 04:36:06;;;;;;;4.70;3.30;;;25.70;66.40;;;;;;5056111;27;93085;-55
2023/09/27 04:38:34;;;;;;;4.67;2.93;;;25.70;66.60;;;;;;5053664;27;92009;-55
2023/09/27 04:41:02;;;;;;;2.83;2.40;;;25.70;66.80;;;;;;5056173;27;93127;-55
2023/09/27 04:43:31;;;;;;;7.27;2.70;;;25.80;67.00;;;;;;5059430;27;92458;-57
2023/09/27 04:45:59;;;;;;;5.07;2.67;;;25.70;67.10;;;;;;5060434;27;93279;-54
2023/09/27 04:48:27;;;;;;;2.53;2.33;;;25.80;67.20;;;;;;5060085;27;92977;-57
2023/09/27 04:50:57;;;;;;;6.03;2.87;;;25.80;67.30;;;;;;5060089;27;92220;-54
2023/09/27 04:53:27;;;;;;;3.50;1.73;;;25.80;67.20;;;;;;5059390;27;92151;-53
2023/09/27 04:55:55;;;;;;;2.20;1.73;;;25.70;67.30;;;;;;5058185;27;93180;-53
2023/09/27 04:58:23;;;;;;;3.97;2.03;;;25.80;67.30;;;;;;5060242;27;93756;-53
2023/09/27 05:00:51;;;;;;;1.70;1.53;;;25.70;67.20;;;;;;5057941;27;92079;-54
2023/09/27 05:03:19;;;;;;;2.07;1.60;;;25.70;67.30;;;;;;5059883;27;92097;-54
2023/09/27 05:05:47;;;;;;;2.30;1.77;;;25.70;67.20;;;;;;5051455;27;93939;-53
2023/09/27 05:08:15;;;;;;;2.33;1.80;;;25.70;67.10;;;;;;5044077;27;93855;-54
2023/09/27 05:10:45;;;;;;;3.00;1.57;;;25.60;66.80;;;;;;5040277;28;93104;-54
2023/09/27 05:13:13;;;;;;;4.77;1.80;;;25.60;66.90;;;;;;5039918;28;92052;-54
2023/09/27 05:15:41;;;;;;;3.00;1.63;;;25.60;66.80;;;;;;5039300;28;94229;-54
2023/09/27 05:18:10;;;;;;;2.93;1.97;;;25.60;67.10;;;;;;5039454;28;92994;-53
2023/09/27 05:20:38;;;;;;;3.53;2.20;;;25.50;66.90;;;;;;5040370;28;92410;-53
2023/09/27 05:23:06;;;;;;;3.17;1.33;;;25.50;66.90;;;;;;5039748;28;91303;-54
2023/09/27 05:25:35;;;;;;;2.33;1.60;;;25.60;67.00;;;;;;5037130;28;94225;-53
2023/09/27 05:28:04;;;;;;;2.60;1.70;;;25.50;66.90;;;;;;5039886;27;92829;-53
2023/09/27 05:30:32;;;;;;;3.20;2.30;;;25.50;66.90;;;;;;5048684;27;93026;-54
2023/09/27 05:33:00;;;;;;;2.33;1.73;;;25.50;66.70;;;;;;5041133;27;92101;-54
2023/09/27 05:35:29;;;;;;;3.50;2.03;;;25.40;67.50;;;;;;5048031;27;94159;-54
2023/09/27 05:37:57;;;;;;;2.90;1.97;;;25.40;66.60;;;;;;5042377;27;92953;-54
2023/09/27 05:40:25;;;;;;;2.07;1.60;;;25.40;66.70;;;;;;5039579;28;92185;-54
2023/09/27 05:42:53;;;;;;;3.07;1.90;;;25.40;67.50;;;;;;5036122;28;92095;-54
2023/09/27 05:45:23;;;;;;;2.07;1.87;;;25.40;66.60;;;;;;5038938;28;92928;-53
2023/09/27 05:47:51;;;;;;;2.07;1.80;;;25.40;66.60;;;;;;5039344;28;92730;-54
2023/09/27 05:50:19;;;;;;;2.17;1.97;;;25.40;66.40;;;;;;5039060;28;91993;-54
2023/09/27 05:52:47;;;;;;;2.30;1.33;;;25.40;66.50;;;;;;5037493;27;93542;-54
2023/09/27 05:55:15;;;;;;;2.50;1.53;;;25.40;66.40;;;;;;5040627;27;95093;-54
2023/09/27 05:57:44;;;;;;;3.23;1.90;;;25.40;66.40;;;;;;5046797;27;93700;-53
2023/09/27 06:00:22;;;;;;;2.63;1.70;;;25.40;66.40;;;;;;5049151;27;91902;-53
2023/09/27 06:02:51;;;;;;;2.37;1.80;;;25.40;66.40;;;;;;5043611;27;92118;-53
2023/09/27 06:05:20;;;;;;;2.30;1.90;;;25.40;66.40;;;;;;5044215;27;94078;-53
2023/09/27 06:07:49;;;;;;;2.77;2.30;;;25.30;67.10;;;;;;5035778;27;93689;-54
2023/09/27 06:10:17;;;;;;;3.70;2.70;;;25.30;66.20;;;;;;5049044;27;91950;-54
2023/09/27 06:12:45;;;;;;;3.27;2.53;;;25.30;66.10;;;;;;5048959;27;91501;-54
2023/09/27 06:15:14;;;;;;;4.70;2.37;;;25.30;66.20;;;;;;5034030;28;94228;-53
2023/09/27 06:17:42;;;;;;;4.57;2.70;;;25.30;66.10;;;;;;5038006;28;92754;-54
2023/09/27 06:20:19;;;;;;;5.37;2.93;;;25.30;66.10;;;;;;5038465;28;92925;-54
2023/09/27 06:22:49;;;;;;;4.03;2.53;;;25.30;66.10;;;;;;5038524;28;92159;-53
2023/09/27 06:25:17;;;;;;;3.43;2.60;;;25.30;66.00;;;;;;5036468;28;94199;-53
2023/09/27 06:27:46;;;;;;;5.17;3.33;;;25.30;66.20;;;;;;5038140;28;93886;-54
2023/09/27 06:30:15;;;;;;;4.80;3.30;;;25.30;66.50;;;;;;5036179;28;92143;-53
2023/09/27 06:32:44;;;;;;;4.87;3.37;;;25.30;66.20;;;;;;5037112;28;92110;-53
2023/09/27 06:35:14;;;;;;;3.37;2.90;;;25.30;66.20;;;;;;5037910;28;94186;-53
2023/09/27 06:37:43;;;;;;;5.47;3.37;;;25.30;66.10;;;;;;5038668;28;93820;-53
2023/09/27 06:40:16;;;;;;;6.60;3.43;;;25.30;66.10;;;;;;5038258;28;91943;-53
2023/09/27 06:42:44;;;;;;;4.43;3.23;;;25.30;66.00;;;;;;5038487;28;92164;-53
2023/09/27 06:45:13;;;;;;;4.17;2.97;;;25.30;66.00;;;;;;5032704;28;95110;-53
2023/09/27 06:47:41;;;;;;;5.90;3.17;;;25.30;66.00;;;;;;5037182;28;94774;-53
2023/09/27 06:50:11;;;;;;;4.63;3.20;;;25.30;66.00;;;;;;5038264;28;92148;-53
2023/09/27 06:52:40;;;;;;;6.30;3.37;;;25.30;66.00;;;;;;5036231;28;92122;-53
2023/09/27 06:55:11;;;;;;;5.53;3.67;;;25.30;65.90;;;;;;5037617;28;93039;-53
2023/09/27 06:57:40;;;;;;;5.97;3.27;;;25.30;65.90;;;;;;5037434;28;93870;-54
2023/09/27 07:00:12;;;;;;;5.87;3.10;;;25.30;65.90;;;;;;5038303;28;92074;-52
2023/09/27 07:02:42;;;;;;;3.63;2.73;;;25.30;66.00;;;;;;5037469;28;91405;-52
2023/09/27 07:05:11;;;;;;;4.57;3.40;;;25.30;66.00;;;;;;5040618;27;93191;-53
2023/09/27 07:07:41;;;;;;;5.20;3.40;;;25.30;66.00;;;;;;5047710;27;92744;-52
2023/09/27 07:10:09;;;;;;;5.37;2.80;;;25.30;66.90;;;;;;5048626;27;92746;-53
2023/09/27 07:12:37;;;;;;;5.80;3.87;;;25.30;66.10;;;;;;5047802;27;92039;-53
2023/09/27 07:15:10;;;;;;;4.17;2.97;;;25.30;66.10;;;;;;5048113;27;94051;-53
2023/09/27 07:17:39;;;;;;;4.97;3.90;;;25.30;66.00;;;;;;5044488;27;92543;-52
2023/09/27 07:20:17;;;;;;;6.53;3.80;;;25.30;66.00;;;;;;5046479;27;92089;-53
2023/09/27 07:22:48;;;;;;;5.43;3.47;;;25.30;66.00;;;;;;5047658;27;91963;-52
2023/09/27 07:25:19;;;;;;;3.97;3.03;;;25.30;66.30;;;;;;5044767;27;94086;-53
2023/09/27 07:27:48;;;;;;;6.70;3.40;;;25.30;66.20;;;;;;5046843;27;93853;-53
2023/09/27 07:30:18;;;;;;;3.97;2.93;;;25.30;66.30;;;;;;5044967;27;92982;-53
2023/09/27 07:32:48;;;;;;;6.90;3.33;;;25.30;66.20;;;;;;5046848;27;92153;-52
2023/09/27 07:35:17;;;;;;;4.90;3.07;;;25.20;67.00;;;;;;5046541;27;93985;-54
2023/09/27 07:37:47;;;;;;;4.10;2.83;;;25.30;66.20;;;;;;5048161;27;94790;-53
2023/09/27 07:40:15;;;;;;;6.23;3.30;;;25.20;66.30;;;;;;5044788;27;92084;-53
2023/09/27 07:42:44;;;;;;;6.37;3.07;;;25.20;66.30;;;;;;5045935;27;92419;-54
2023/09/27 07:45:21;;;;;;;3.40;2.67;;;25.20;66.30;;;;;;5048079;27;93093;-53
2023/09/27 07:47:50;;;;;;;5.17;2.60;;;25.30;66.50;;;;;;5047499;27;94034;-53
2023/09/27 07:50:19;;;;;;;3.20;2.63;;;25.20;66.50;;;;;;5047214;27;92122;-53
2023/09/27 07:52:48;;;;;;;7.37;2.93;;;25.20;66.40;;;;;;5046340;27;91293;-53
2023/09/27 07:55:17;;;;;;;4.20;3.03;;;25.30;67.30;;;;;;5044146;27;92030;-53
2023/09/27 07:57:46;;;;;;;3.30;2.83;;;25.20;66.30;;;;;;5046959;27;92757;-53
2023/09/27 08:00:15;;;;;;;4.43;3.37;;;25.20;66.50;;;;;;5043279;27;92985;-53
2023/09/27 08:02:45;;;;;;;4.23;2.50;;;25.20;66.30;;;;;;5046720;27;92028;-53
2023/09/27 08:05:16;;;;;;;5.20;2.53;;;25.20;66.40;;;;;;5046902;27;93071;-53
2023/09/27 08:07:50;;;;;;;5.23;2.57;;;25.20;66.40;;;;;;5046597;27;92699;-53
2023/09/27 08:10:19;;;;;;;2.87;2.33;;;25.20;66.50;;;;;;5044754;27;91971;-53
2023/09/27 08:12:49;;;;;;;4.47;3.10;;;25.20;66.50;;;;;;5045646;27;92236;-53
2023/09/27 08:15:17;;;;;;;6.20;3.13;;;25.20;66.40;;;;;;5047539;27;93408;-53
2023/09/27 08:17:47;;;;;;;3.10;2.60;;;25.20;66.40;;;;;;5046299;27;92779;-54
2023/09/27 08:20:18;;;;;;;3.83;2.63;;;25.20;66.40;;;;;;5044010;27;92024;-53
2023/09/27 08:22:46;;;;;;;2.57;2.00;;;25.20;66.40;;;;;;5045736;27;91936;-54
2023/09/27 08:25:16;;;;;;;7.27;2.70;;;25.20;66.60;;;;;;5042755;27;95139;-53
2023/09/27 08:27:50;;;;;;;2.67;2.23;;;25.20;66.50;;;;;;5046267;27;94704;-53
2023/09/27 08:30:19;;;;;;;4.33;2.80;;;25.20;66.50;;;;;;5044681;27;92070;-53
2023/09/27 08:32:47;;;;;;;3.30;2.53;;;25.20;66.40;;;;;;5045424;27;92219;-53
2023/09/27 08:35:16;;;;;;;4.30;2.80;;;25.20;66.50;;;;;;5041566;27;93006;-53
2023/09/27 08:37:44;;;;;;;5.70;2.60;;;25.20;66.40;;;;;;5054234;27;92904;-53
2023/09/27 08:40:13;;;;;;;3.30;2.60;;;25.20;66.50;;;;;;5057478;27;92033;-53
2023/09/27 08:42:43;;;;;;;3.37;2.43;;;25.20;66.50;;;;;;5057895;27;91264;-53
2023/09/27 08:45:13;;;;;;;3.60;2.30;;;25.20;66.60;;;;;;5057626;27;93019;-53
2023/09/27 08:47:42;;;;;;;3.07;2.30;;;25.20;66.50;;;;;;5049193;27;93882;-53
2023/09/27 08:50:11;;;;;;;4.67;2.47;;;25.20;66.50;;;;;;5039170;27;92993;-53
2023/09/27 08:52:39;;;;;;;4.00;2.30;;;25.20;66.50;;;;;;5035878;27;92272;-53
2023/09/27 08:55:08;;;;;;;2.63;1.93;;;25.20;66.50;;;;;;5034844;27;94322;-54
2023/09/27 08:57:37;;;;;;;3.23;2.17;;;25.20;66.50;;;;;;5035211;27;92734;-54
2023/09/27 09:00:13;;;;;;;3.57;2.23;;;25.20;66.50;;;;;;5036470;28;92056;-54
2023/09/27 09:02:41;;;;;;;3.17;2.13;;;25.10;66.40;;;;;;5038228;27;92967;-53
2023/09/27 09:05:11;;;;;;;5.90;1.83;;;25.20;66.50;;;;;;5039059;27;92143;-54
2023/09/27 09:07:41;;;;;;;2.87;2.23;;;25.20;66.50;;;;;;5040994;27;92875;-53
2023/09/27 09:10:14;;;;;;;3.87;2.40;;;25.20;66.60;;;;;;5033782;28;91951;-53
2023/09/27 09:12:42;;;;;;;5.33;2.50;;;25.20;66.50;;;;;;5036153;28;92050;-53
2023/09/27 09:15:15;;;;;;;3.23;2.13;;;25.20;66.50;;;;;;5035386;28;95159;-53
2023/09/27 09:17:47;;;;;;;3.70;2.03;;;25.20;66.50;;;;;;5035924;28;93696;-54
2023/09/27 09:20:17;;;;;;;2.77;2.07;;;25.20;66.50;;;;;;5036351;28;92033;-53
2023/09/27 09:22:45;;;;;;;2.33;2.13;;;25.30;66.60;;;;;;5036783;28;92040;-53
2023/09/27 09:25:13;;;;;;;5.03;2.27;;;25.20;66.50;;;;;;5036512;28;93061;-53
2023/09/27 09:27:42;;;;;;;2.83;2.07;;;25.20;66.50;;;;;;5036424;28;92753;-53
2023/09/27 09:30:14;;;;;;;4.00;2.43;;;25.20;66.40;;;;;;5039515;28;92112;-53
2023/09/27 09:32:49;;;;;;;4.33;2.37;;;25.20;66.50;;;;;;5039588;28;91288;-53
2023/09/27 09:35:30;;;;;;;3.50;2.60;;;25.20;66.50;;;;;;5030918;28;93301;-53
2023/09/27 09:37:59;;;;;;;5.63;2.70;;;25.20;66.50;;;;;;5020639;28;92759;-53
2023/09/27 09:40:28;;;;;;;4.83;1.73;;;25.20;66.40;;;;;;5019140;28;93012;-53
2023/09/27 09:42:57;;;;;;;3.60;2.47;;;25.20;66.40;;;;;;5038378;28;92100;-53
2023/09/27 09:45:28;;;;;;;3.67;2.60;;;25.20;66.50;;;;;;5036795;28;93220;-53
2023/09/27 09:47:57;;;;;;;4.27;2.77;;;25.20;66.50;;;;;;5039085;28;92910;-53
2023/09/27 09:50:29;;;;;;;3.40;2.60;;;25.20;66.40;;;;;;5037302;28;91906;-53
2023/09/27 09:52:58;;;;;;;4.90;2.83;;;25.20;66.50;;;;;;5039298;28;92226;-53
2023/09/27 09:55:27;;;;;;;3.27;2.60;;;25.20;66.40;;;;;;5038249;27;94162;-52
2023/09/27 09:58:18;;;;;;;4.43;2.53;;;25.20;66.50;;;;;;5037827;27;92445;-63
2023/09/27 10:00:49;;;;;;;2.93;2.33;;;25.20;66.40;;;;;;5037215;28;92126;-66
2023/09/27 10:03:19;;;;;;;3.03;2.07;;;25.30;66.60;;;;;;5038995;27;92099;-55
2023/09/27 10:05:50;;;;;;;4.03;2.93;;;25.30;66.60;;;;;;5053282;27;94156;-54
2023/09/27 10:08:18;;;;;;;3.97;2.50;;;25.30;66.90;;;;;;5060351;27;94723;-56
2023/09/27 10:10:47;;;;;;;11.73;2.73;;;25.30;66.80;;;;;;5060413;27;92004;-54
2023/09/27 10:13:18;;;;;;;8.93;2.63;;;25.30;66.80;;;;;;5063100;27;92547;-55
2023/09/27 10:15:47;;;;;;;3.40;2.30;;;25.30;67.60;;;;;;5065347;27;94192;-55
2023/09/27 10:18:37;;;;;;;6.50;1.90;;;25.30;66.80;;;;;;5064045;27;95308;-55
2023/09/27 10:21:06;;;;;;;3.17;2.50;;;25.30;66.90;;;;;;5062707;27;92134;-56
2023/09/27 10:23:36;;;;;;;5.60;2.73;;;25.30;66.80;;;;;;5059649;27;91343;-56
2023/09/27 10:26:17;;;;;;;7.67;2.53;;;25.30;66.80;;;;;;5062103;27;94275;-55
2023/09/27 10:29:12;;;;;;;5.67;2.33;;;25.30;66.90;;;;;;5062958;27;95195;-52
2023/09/27 10:32:20;;;;;;;5.20;2.50;;;25.30;66.70;;;;;;5057570;27;93052;-52
2023/09/27 10:34:51;;;;;;;2.33;1.97;;;25.30;66.70;;;;;;5059792;27;92183;-52
2023/09/27 10:37:58;;;;;;;2.93;2.10;;;25.30;66.80;;;;;;5061927;27;94032;-52
2023/09/27 10:40:26;;;;;;;1.80;1.60;;;25.30;66.80;;;;;;5058258;27;93739;-52
2023/09/27 10:42:55;;;;;;;4.53;2.10;;;25.30;66.80;;;;;;5059026;27;92352;-52
2023/09/27 10:45:23;;;;;;;5.90;1.70;;;25.40;66.70;;;;;;5058189;27;92171;-52
2023/09/27 10:47:53;;;;;;;2.67;1.80;;;25.40;66.60;;;;;;5058769;27;94107;-51
2023/09/27 10:50:30;;;;;;;1.90;1.63;;;25.40;66.60;;;;;;5057671;27;92709;-52
2023/09/27 10:52:59;;;;;;;7.27;2.43;;;25.40;66.70;;;;;;5052022;27;92160;-52
2023/09/27 10:55:28;;;;;;;4.10;2.20;;;25.40;66.50;;;;;;5056130;27;92744;-52
2023/09/27 10:57:56;;;;;;;2.47;2.00;;;25.40;66.60;;;;;;5053959;27;93859;-52
2023/09/27 11:00:24;;;;;;;5.63;2.17;;;25.50;66.70;;;;;;5036477;28;92520;-52
2023/09/27 11:02:55;;;;;;;2.97;2.20;;;25.50;66.60;;;;;;5037094;27;92119;-51
2023/09/27 11:05:25;;;;;;;3.47;2.07;;;25.50;66.60;;;;;;5036171;28;92134;-52
2023/09/27 11:07:55;;;;;;;4.87;2.20;;;25.50;66.60;;;;;;5035946;28;93077;-52
2023/09/27 11:10:33;;;;;;;6.03;2.33;;;25.50;66.60;;;;;;5036199;28;93851;-52
2023/09/27 11:13:09;;;;;;;4.70;2.40;;;25.50;66.50;;;;;;5035763;28;92446;-52
2023/09/27 11:15:37;;;;;;;3.80;2.20;;;25.50;66.60;;;;;;5036149;28;91168;-52
2023/09/27 11:18:07;;;;;;;2.27;2.00;;;25.50;66.40;;;;;;5034944;28;94205;-53
2023/09/27 11:20:35;;;;;;;7.60;2.60;;;25.60;66.60;;;;;;5036741;27;94127;-52
2023/09/27 11:23:05;;;;;;;3.33;2.23;;;25.60;66.40;;;;;;5036185;28;92911;-52
2023/09/27 11:25:34;;;;;;;3.63;2.23;;;25.60;66.40;;;;;;5036253;28;92054;-52
2023/09/27 11:28:03;;;;;;;3.33;2.20;;;25.70;66.50;;;;;;5037092;27;94135;-52
2023/09/27 11:30:32;;;;;;;4.00;2.50;;;25.60;66.40;;;;;;5054761;27;92755;-52
2023/09/27 11:33:01;;;;;;;5.27;2.23;;;25.60;66.40;;;;;;5062023;27;92023;-52
2023/09/27 11:35:29;;;;;;;2.80;2.23;;;25.60;66.40;;;;;;5069660;27;92037;-52
2023/09/27 11:38:10;;;;;;;4.97;2.10;;;25.60;66.40;;;;;;5041610;27;93102;-52
2023/09/27 11:40:39;;;;;;;4.27;2.90;;;25.60;66.50;;;;;;5076233;27;93842;-52
2023/09/27 11:43:07;;;;;;;4.53;2.30;;;25.60;66.40;;;;;;5079248;27;93022;-52
2023/09/27 11:45:45;;;;;;;2.03;1.60;;;25.60;66.40;;;;;;5078713;27;92129;-53
2023/09/27 11:48:13;;;;;;;5.60;1.93;;;25.60;66.40;;;;;;5078129;27;94049;-52
2023/09/27 11:50:42;;;;;;;1.77;1.43;;;25.70;66.40;;;;;;5060385;27;94886;-53
2023/09/27 11:53:12;;;;;;;2.43;1.40;;;25.70;66.20;;;;;;5056658;27;92192;-53
2023/09/27 11:55:42;;;;;;;2.57;1.50;;;25.60;66.20;;;;;;5056505;27;92060;-53
2023/09/27 11:58:11;;;;;;;2.43;1.87;;;25.70;66.30;;;;;;5057816;27;94303;-52
2023/09/27 12:00:39;;;;;;;1.87;1.47;;;25.70;66.10;;;;;;5058091;27;92748;-52
2023/09/27 12:03:07;;;;;;;3.33;1.80;;;25.70;67.00;;;;;;5058239;27;91959;-52
2023/09/27 12:05:36;;;;;;;3.27;1.27;;;25.70;66.10;;;;;;5058512;27;91271;-52
2023/09/27 12:08:06;;;;;;;2.07;1.60;;;25.80;66.10;;;;;;5057358;27;93079;-52
2023/09/27 12:10:35;;;;;;;2.17;1.37;;;25.80;66.10;;;;;;5057135;27;93810;-52
2023/09/27 12:13:05;;;;;;;1.77;1.57;;;25.80;66.00;;;;;;5057859;27;93017;-52
2023/09/27 12:15:33;;;;;;;1.77;1.20;;;25.80;66.00;;;;;;5058089;27;92124;-52
2023/09/27 12:18:01;;;;;;;2.10;1.53;;;25.80;66.00;;;;;;5058165;27;93093;-52
2023/09/27 12:20:30;;;;;;;1.97;1.43;;;25.80;65.90;;;;;;5057675;27;92653;-52
2023/09/27 12:23:09;;;;;;;1.63;1.53;;;25.80;65.80;;;;;;5057618;27;92116;-52
2023/09/27 12:25:40;;;;;;;2.10;1.40;;;25.80;65.90;;;;;;5057497;27;92131;-52
2023/09/27 12:28:08;;;;;;;2.83;1.07;;;25.80;65.90;;;;;;5053251;27;94187;-52
2023/09/27 12:30:37;;;;;;;3.20;1.90;;;25.80;65.90;;;;;;5057991;27;92739;-53
2023/09/27 12:33:05;;;;;;;1.97;1.43;;;25.80;65.70;;;;;;5058158;27;92206;-52
2023/09/27 12:35:33;;;;;;;1.53;1.23;;;25.90;65.70;;;;;;5057564;27;92072;-52
2023/09/27 12:38:04;;;;;;;2.30;1.37;;;25.90;65.70;;;;;;5057292;27;94067;-52
2023/09/27 12:40:33;;;;;;;1.57;1.00;;;25.90;65.70;;;;;;5057656;27;93565;-52
2023/09/27 12:43:02;;;;;;;1.60;1.47;;;25.90;65.70;;;;;;5056126;27;92127;-53
2023/09/27 12:45:30;;;;;;;2.23;1.67;;;25.90;65.70;;;;;;5055944;27;92134;-52
2023/09/27 12:47:58;;;;;;;3.03;1.10;;;26.00;65.90;;;;;;5057382;27;94095;-53
2023/09/27 12:50:27;;;;;;;3.97;1.60;;;26.00;65.70;;;;;;5057354;27;93843;-53
2023/09/27 12:52:55;;;;;;;3.27;1.27;;;26.10;65.80;;;;;;5056678;27;92057;-52
2023/09/27 12:55:23;;;;;;;1.83;1.10;;;26.00;65.70;;;;;;5057514;27;91328;-54
2023/09/27 12:57:52;;;;;;;1.73;1.10;;;26.10;65.80;;;;;;5056782;27;94175;-53